createdAt,value
2024-03-26T00:04:17.854Z,8.80
2024-03-26T00:09:20.863Z,8.90
2024-03-26T00:14:23.661Z,9.00
2024-03-26T00:19:26.458Z,8.50
2024-03-26T00:24:29.573Z,9.80
2024-03-26T00:29:32.574Z,12.30
2024-03-26T00:34:35.785Z,10.90
2024-03-26T00:39:38.792Z,9.60
2024-03-26T00:44:41.624Z,9.40
2024-03-26T00:49:44.500Z,6.80
2024-03-26T00:54:47.816Z,8.20
2024-03-26T00:59:50.823Z,7.00
2024-03-26T01:04:54.029Z,7.20
2024-03-26T01:09:56.934Z,7.00
2024-03-26T01:14:59.844Z,7.40
2024-03-26T01:20:02.742Z,6.70
2024-03-26T01:25:08.550Z,6.10
2024-03-26T01:30:11.942Z,7.70
2024-03-26T01:35:15.164Z,7.10
2024-03-26T01:40:18.263Z,6.90
2024-03-26T01:45:21.159Z,5.70
2024-03-26T01:50:24.183Z,5.90
2024-03-26T01:55:27.686Z,5.60
2024-03-26T02:00:31.768Z,5.90
2024-03-26T02:05:34.622Z,5.60
2024-03-26T02:10:37.523Z,6.80
2024-03-26T02:15:41.255Z,6.40
2024-03-26T02:20:45.724Z,5.70
2024-03-26T02:25:49.417Z,8.00
2024-03-26T02:30:52.331Z,6.70
2024-03-26T02:35:55.226Z,8.40
2024-03-26T02:40:58.123Z,8.10
2024-03-26T02:46:00.926Z,7.70
2024-03-26T02:51:04.246Z,6.60
2024-03-26T02:56:07.253Z,7.40
2024-03-26T03:01:12.000Z,7.10
2024-03-26T03:06:14.892Z,6.50
2024-03-26T03:11:17.702Z,7.10
2024-03-26T03:16:20.603Z,7.40
2024-03-26T03:21:23.506Z,7.70
2024-03-26T03:26:26.410Z,10.40
2024-03-26T03:31:30.955Z,8.40
2024-03-26T03:36:33.961Z,8.60
2024-03-26T03:41:36.763Z,7.10
2024-03-26T03:46:39.661Z,8.30
2024-03-26T03:51:42.568Z,8.40
2024-03-26T03:56:45.490Z,8.30
2024-03-26T04:01:49.043Z,7.50
2024-03-26T04:06:51.899Z,9.40
2024-03-26T04:11:55.442Z,7.90
2024-03-26T04:17:01.013Z,8.50
2024-03-26T04:22:03.987Z,7.70
2024-03-26T04:27:06.908Z,6.80
2024-03-26T04:32:09.895Z,7.40
2024-03-26T04:37:12.906Z,5.50
2024-03-26T04:42:15.714Z,8.30
2024-03-26T04:47:18.931Z,8.20
2024-03-26T04:52:21.928Z,6.90
2024-03-26T04:57:24.833Z,9.80
2024-03-26T05:02:27.840Z,8.60
2024-03-26T05:07:30.747Z,6.60
2024-03-26T05:12:33.644Z,8.30
2024-03-26T05:17:36.551Z,7.60
2024-03-26T05:22:39.663Z,9.60
2024-03-26T05:27:42.665Z,4.20
2024-03-26T05:32:45.564Z,9.90
2024-03-26T05:37:50.120Z,9.40
2024-03-26T05:42:53.015Z,11.90
2024-03-26T05:47:55.957Z,11.70
2024-03-26T05:53:00.352Z,10.90
2024-03-26T05:58:03.674Z,11.50
2024-03-26T06:03:06.998Z,10.50
2024-03-26T06:08:09.997Z,9.50
2024-03-26T06:13:13.036Z,9.30
2024-03-26T06:18:16.540Z,8.90
2024-03-26T06:23:19.531Z,9.10
2024-03-26T06:28:23.045Z,8.50
2024-03-26T06:33:26.719Z,8.80
2024-03-26T06:38:30.701Z,9.20
2024-03-26T06:43:33.702Z,8.60
2024-03-26T06:48:36.611Z,8.60
2024-03-26T06:53:39.518Z,7.90
2024-03-26T06:58:46.418Z,8.00
2024-03-26T07:03:49.320Z,7.70
2024-03-26T07:08:52.544Z,7.80
2024-03-26T07:13:55.433Z,8.20
2024-03-26T07:18:58.336Z,8.20
2024-03-26T07:24:01.253Z,8.30
2024-03-26T07:29:04.155Z,7.30
2024-03-26T07:34:07.063Z,8.20
2024-03-26T07:39:16.722Z,8.50
2024-03-26T07:44:19.772Z,8.40
2024-03-26T07:49:22.725Z,8.10
2024-03-26T07:54:25.631Z,9.30
2024-03-26T07:59:28.746Z,7.00
2024-03-26T08:04:31.651Z,7.90
2024-03-26T08:09:34.764Z,7.70
2024-03-26T08:14:40.709Z,5.80
2024-03-26T08:19:43.736Z,6.80
2024-03-26T08:24:46.514Z,4.60
2024-03-26T08:29:49.544Z,4.20
2024-03-26T08:34:52.446Z,2.90
2024-03-26T08:39:57.090Z,3.60
2024-03-26T08:45:00.288Z,3.00
2024-03-26T08:50:03.925Z,3.20
2024-03-26T08:55:07.403Z,2.90
2024-03-26T09:00:12.046Z,2.20
2024-03-26T09:05:14.997Z,2.80
2024-03-26T09:10:17.910Z,2.00
2024-03-26T09:15:20.821Z,2.20
2024-03-26T09:20:23.705Z,2.30
2024-03-26T09:25:26.692Z,2.10
2024-03-26T09:30:29.720Z,2.60
2024-03-26T09:35:32.626Z,4.90
2024-03-26T09:40:36.042Z,2.30
2024-03-26T09:45:38.948Z,4.80
2024-03-26T09:50:43.521Z,3.80
2024-03-26T09:55:47.519Z,4.40
2024-03-26T10:00:51.346Z,3.40
2024-03-26T10:05:55.002Z,5.00
2024-03-26T10:10:57.969Z,5.00
2024-03-26T10:16:01.561Z,4.00
2024-03-26T10:21:09.113Z,3.30
2024-03-26T10:26:12.108Z,5.10
2024-03-26T10:31:15.235Z,3.40
2024-03-26T10:36:18.424Z,4.70
2024-03-26T10:41:51.234Z,2.70
2024-03-26T10:46:55.169Z,2.90
2024-03-26T10:52:01.253Z,3.50
2024-03-26T10:57:05.250Z,3.80
2024-03-26T11:02:09.922Z,3.60
2024-03-26T11:07:14.841Z,3.70
2024-03-26T11:12:22.311Z,4.60
2024-03-26T11:17:25.793Z,4.30
2024-03-26T11:22:28.652Z,3.60
2024-03-26T11:27:32.231Z,4.00
2024-03-26T11:32:35.229Z,3.70
2024-03-26T11:37:40.518Z,4.60
2024-03-26T11:42:45.800Z,4.70
2024-03-26T11:47:48.952Z,5.60
2024-03-26T11:52:51.865Z,6.80
2024-03-26T11:57:55.179Z,6.90
2024-03-26T12:02:58.177Z,6.50
2024-03-26T12:08:01.186Z,5.00
2024-03-26T12:13:05.646Z,5.80
2024-03-26T12:18:08.539Z,5.80
2024-03-26T12:23:11.538Z,6.60
2024-03-26T12:28:14.663Z,5.10
2024-03-26T12:33:19.502Z,4.70
2024-03-26T12:38:22.810Z,4.40
2024-03-26T12:43:25.815Z,5.50
2024-03-26T12:48:29.489Z,4.00
2024-03-26T12:53:32.448Z,4.80
2024-03-26T12:58:35.558Z,3.20
2024-03-26T13:03:38.642Z,4.90
2024-03-26T13:08:41.669Z,4.80
2024-03-26T13:13:46.597Z,3.80
2024-03-26T13:18:49.530Z,3.30
2024-03-26T13:23:52.537Z,7.00
2024-03-26T13:28:55.441Z,3.30
2024-03-26T13:33:58.444Z,3.40
2024-03-26T13:39:01.663Z,4.00
2024-03-26T13:44:04.860Z,4.20
2024-03-26T13:49:16.388Z,2.80
2024-03-26T13:54:19.574Z,3.70
2024-03-26T13:59:22.482Z,3.90
2024-03-26T14:04:25.394Z,3.50
2024-03-26T14:09:29.012Z,4.20
2024-03-26T14:14:31.924Z,3.50
2024-03-26T14:19:34.925Z,3.80
2024-03-26T14:24:37.831Z,3.80
2024-03-26T14:29:40.810Z,3.40
2024-03-26T14:34:43.742Z,3.80
2024-03-26T14:39:46.645Z,3.30
2024-03-26T14:44:49.767Z,4.00
2024-03-26T14:49:52.761Z,3.10
2024-03-26T14:54:55.978Z,3.40
2024-03-26T14:59:59.080Z,4.20
2024-03-26T15:05:05.639Z,3.80
2024-03-26T15:10:08.881Z,4.50
2024-03-26T15:15:11.945Z,4.10
2024-03-26T15:20:18.181Z,3.50
2024-03-26T15:25:23.744Z,4.80
2024-03-26T15:30:45.684Z,6.00
2024-03-26T15:35:48.492Z,5.60
2024-03-26T15:40:51.401Z,6.90
2024-03-26T15:45:54.403Z,5.50
2024-03-26T15:50:57.405Z,6.10
2024-03-26T15:56:00.334Z,6.60
2024-03-26T16:01:03.419Z,6.50
2024-03-26T16:06:07.423Z,5.70
2024-03-26T16:11:13.854Z,6.80
2024-03-26T16:16:17.258Z,7.90
2024-03-26T16:21:20.416Z,5.60
2024-03-26T16:26:23.371Z,6.20
2024-03-26T16:31:26.279Z,5.80
2024-03-26T16:36:29.381Z,5.30
2024-03-26T16:41:35.310Z,5.80
2024-03-26T16:46:39.767Z,5.30
2024-03-26T16:51:43.866Z,5.80
2024-03-26T16:56:46.840Z,5.10
2024-03-26T17:01:50.048Z,4.60
2024-03-26T17:06:52.959Z,5.70
2024-03-26T17:11:55.850Z,4.80
2024-03-26T17:17:09.642Z,4.40
2024-03-26T17:22:17.549Z,4.50
2024-03-26T17:27:20.646Z,4.70
2024-03-26T17:32:23.885Z,4.90
2024-03-26T17:37:26.815Z,5.10
2024-03-26T17:42:33.556Z,5.90
2024-03-26T17:47:36.772Z,4.60
2024-03-26T17:52:40.085Z,4.90
2024-03-26T17:57:43.088Z,4.80
2024-03-26T18:02:49.636Z,4.70
2024-03-26T18:07:52.592Z,4.20
2024-03-26T18:12:55.487Z,4.00
2024-03-26T18:17:58.412Z,4.10
2024-03-26T18:23:01.395Z,4.50
2024-03-26T18:28:05.017Z,3.30
2024-03-26T18:33:07.923Z,4.40
2024-03-26T18:38:10.832Z,4.80
2024-03-26T18:43:13.835Z,4.10
2024-03-26T18:48:17.088Z,3.80
2024-03-26T18:53:20.062Z,4.60
2024-03-26T18:58:22.970Z,4.30
2024-03-26T19:03:26.477Z,4.30
2024-03-26T19:08:29.526Z,4.30
2024-03-26T19:13:35.666Z,5.40
2024-03-26T19:18:38.789Z,4.30
2024-03-26T19:23:41.882Z,4.70
2024-03-26T19:28:44.786Z,4.20
2024-03-26T19:33:49.131Z,4.80
2024-03-26T19:38:53.255Z,4.60
2024-03-26T19:43:56.507Z,3.80
2024-03-26T19:48:59.788Z,5.00
2024-03-26T19:54:02.958Z,5.40
2024-03-26T19:59:05.898Z,4.80
2024-03-26T20:04:09.355Z,4.90
2024-03-26T20:09:12.536Z,4.90
2024-03-26T20:14:15.745Z,5.20
2024-03-26T20:19:18.716Z,4.70
2024-03-26T20:24:22.282Z,5.30
2024-03-26T20:29:25.291Z,4.50
2024-03-26T20:34:31.144Z,4.90
2024-03-26T20:39:34.156Z,4.50
2024-03-26T20:44:37.485Z,4.90
2024-03-26T20:49:40.888Z,5.00
2024-03-26T20:54:44.101Z,4.90
2024-03-26T20:59:47.500Z,5.50
2024-03-26T21:04:50.820Z,4.80
2024-03-26T21:09:53.966Z,4.50
2024-03-26T21:14:57.044Z,4.00
2024-03-26T21:20:01.892Z,4.20
2024-03-26T21:25:06.775Z,4.60
2024-03-26T21:30:10.503Z,4.50
2024-03-26T21:35:13.784Z,5.00
2024-03-26T21:40:17.207Z,5.20
2024-03-26T21:45:20.099Z,5.40
2024-03-26T21:50:23.112Z,4.30
2024-03-26T21:55:26.108Z,4.80
2024-03-26T22:00:29.059Z,5.90
2024-03-26T22:05:32.941Z,5.00
2024-03-26T22:10:38.611Z,5.40
2024-03-26T22:15:42.917Z,5.40
2024-03-26T22:20:55.796Z,5.60
2024-03-26T22:26:02.096Z,4.90
2024-03-26T22:31:06.750Z,4.60
2024-03-26T22:36:10.185Z,4.80
2024-03-26T22:41:13.032Z,4.50
2024-03-26T22:46:15.934Z,5.60
2024-03-26T22:51:18.738Z,4.70
2024-03-26T22:56:21.964Z,5.40
2024-03-26T23:01:24.916Z,5.50
2024-03-26T23:06:27.970Z,5.20
2024-03-26T23:11:31.195Z,5.40
2024-03-26T23:16:34.080Z,5.60
2024-03-26T23:21:37.097Z,4.40
2024-03-26T23:26:40.200Z,4.80
2024-03-26T23:31:43.204Z,5.50
2024-03-26T23:36:46.103Z,6.20
2024-03-26T23:41:49.217Z,5.60
2024-03-26T23:46:52.117Z,4.40
2024-03-26T23:51:55.024Z,5.60
2024-03-26T23:56:57.827Z,5.10
